sensor_id;sensor_type;location;lat;lon;timestamp;temperature;humidity
25058;DHT22;13057;50.978;11.034;2022-12-24T00:00:33;11.50;99.90
25058;DHT22;13057;50.978;11.034;2022-12-24T00:02:59;11.50;99.90
25058;DHT22;13057;50.978;11.034;2022-12-24T00:05:25;11.50;99.90
25058;DHT22;13057;50.978;11.034;2022-12-24T00:07:51;11.40;99.90
25058;DHT22;13057;50.978;11.034;2022-12-24T00:10:17;11.50;99.90
25058;DHT22;13057;50.978;11.034;2022-12-24T00:12:43;11.60;99.90
25058;DHT22;13057;50.978;11.034;2022-12-24T00:15:09;11.50;99.90
25058;DHT22;13057;50.978;11.034;2022-12-24T00:17:35;11.50;99.90
25058;DHT22;13057;50.978;11.034;2022-12-24T00:20:01;11.50;99.90
25058;DHT22;13057;50.978;11.034;2022-12-24T00:22:28;11.50;99.90
25058;DHT22;13057;50.978;11.034;2022-12-24T00:24:54;11.60;99.90
25058;DHT22;13057;50.978;11.034;2022-12-24T00:27:20;11.50;99.90
25058;DHT22;13057;50.978;11.034;2022-12-24T00:29:46;11.50;99.90
25058;DHT22;13057;50.978;11.034;2022-12-24T00:32:12;11.50;99.90
25058;DHT22;13057;50.978;11.034;2022-12-24T00:34:38;11.50;99.90
25058;DHT22;13057;50.978;11.034;2022-12-24T00:37:05;11.50;99.90
25058;DHT22;13057;50.978;11.034;2022-12-24T00:39:31;11.50;99.90
25058;DHT22;13057;50.978;11.034;2022-12-24T00:41:57;11.50;99.90
25058;DHT22;13057;50.978;11.034;2022-12-24T00:44:23;11.50;99.90
25058;DHT22;13057;50.978;11.034;2022-12-24T00:46:49;11.50;99.90
25058;DHT22;13057;50.978;11.034;2022-12-24T00:49:15;11.50;99.90
25058;DHT22;13057;50.978;11.034;2022-12-24T00:51:41;11.40;99.90
25058;DHT22;13057;50.978;11.034;2022-12-24T00:54:07;11.30;99.90
25058;DHT22;13057;50.978;11.034;2022-12-24T00:56:33;11.20;99.90
25058;DHT22;13057;50.978;11.034;2022-12-24T00:58:59;11.20;99.90
25058;DHT22;13057;50.978;11.034;2022-12-24T01:01:25;11.20;99.90
25058;DHT22;13057;50.978;11.034;2022-12-24T01:03:51;11.20;99.90
25058;DHT22;13057;50.978;11.034;2022-12-24T01:06:37;11.30;99.90
25058;DHT22;13057;50.978;11.034;2022-12-24T01:09:03;11.20;99.90
25058;DHT22;13057;50.978;11.034;2022-12-24T01:11:28;11.30;99.90
25058;DHT22;13057;50.978;11.034;2022-12-24T01:13:55;11.40;99.90
25058;DHT22;13057;50.978;11.034;2022-12-24T01:16:20;11.40;99.90
25058;DHT22;13057;50.978;11.034;2022-12-24T01:18:47;11.50;99.90
25058;DHT22;13057;50.978;11.034;2022-12-24T01:21:14;11.50;99.90
25058;DHT22;13057;50.978;11.034;2022-12-24T01:23:40;11.50;99.90
25058;DHT22;13057;50.978;11.034;2022-12-24T01:26:06;11.50;99.90
25058;DHT22;13057;50.978;11.034;2022-12-24T01:28:32;11.40;99.90
25058;DHT22;13057;50.978;11.034;2022-12-24T01:30:58;11.40;99.90
25058;DHT22;13057;50.978;11.034;2022-12-24T01:33:28;11.30;99.90
25058;DHT22;13057;50.978;11.034;2022-12-24T01:35:54;11.30;99.90
25058;DHT22;13057;50.978;11.034;2022-12-24T01:38:19;11.20;99.90
25058;DHT22;13057;50.978;11.034;2022-12-24T01:40:45;11.20;99.90
25058;DHT22;13057;50.978;11.034;2022-12-24T01:43:25;11.20;99.90
25058;DHT22;13057;50.978;11.034;2022-12-24T01:45:57;11.20;99.90
25058;DHT22;13057;50.978;11.034;2022-12-24T01:48:33;11.10;99.90
25058;DHT22;13057;50.978;11.034;2022-12-24T01:51:08;11.10;99.90
25058;DHT22;13057;50.978;11.034;2022-12-24T01:53:38;11.10;99.90
25058;DHT22;13057;50.978;11.034;2022-12-24T01:56:07;11.10;99.90
25058;DHT22;13057;50.978;11.034;2022-12-24T01:58:35;11.10;99.90
25058;DHT22;13057;50.978;11.034;2022-12-24T02:01:02;11.10;99.90
25058;DHT22;13057;50.978;11.034;2022-12-24T02:03:27;11.20;99.90
25058;DHT22;13057;50.978;11.034;2022-12-24T02:05:56;11.30;99.90
25058;DHT22;13057;50.978;11.034;2022-12-24T02:08:22;11.30;99.90
25058;DHT22;13057;50.978;11.034;2022-12-24T02:10:49;11.20;99.90
25058;DHT22;13057;50.978;11.034;2022-12-24T02:13:18;11.20;99.90
25058;DHT22;13057;50.978;11.034;2022-12-24T02:15:55;11.20;99.90
25058;DHT22;13057;50.978;11.034;2022-12-24T02:21:29;11.10;99.90
25058;DHT22;13057;50.978;11.034;2022-12-24T02:24:19;11.00;99.90
25058;DHT22;13057;50.978;11.034;2022-12-24T02:27:08;11.00;99.90
25058;DHT22;13057;50.978;11.034;2022-12-24T02:30:07;10.90;99.90
25058;DHT22;13057;50.978;11.034;2022-12-24T02:32:43;11.00;99.90
25058;DHT22;13057;50.978;11.034;2022-12-24T02:35:22;11.00;99.90
25058;DHT22;13057;50.978;11.034;2022-12-24T02:37:59;11.10;99.90
25058;DHT22;13057;50.978;11.034;2022-12-24T02:40:30;11.20;99.90
25058;DHT22;13057;50.978;11.034;2022-12-24T02:42:59;11.20;99.90
25058;DHT22;13057;50.978;11.034;2022-12-24T02:45:31;11.20;99.90
25058;DHT22;13057;50.978;11.034;2022-12-24T02:47:58;11.20;99.90
25058;DHT22;13057;50.978;11.034;2022-12-24T02:50:24;11.30;99.90
25058;DHT22;13057;50.978;11.034;2022-12-24T02:52:50;11.20;99.90
25058;DHT22;13057;50.978;11.034;2022-12-24T02:55:23;11.30;99.90
25058;DHT22;13057;50.978;11.034;2022-12-24T02:58:12;11.20;99.90
25058;DHT22;13057;50.978;11.034;2022-12-24T03:01:00;11.20;99.90
25058;DHT22;13057;50.978;11.034;2022-12-24T03:03:52;11.00;99.90
25058;DHT22;13057;50.978;11.034;2022-12-24T03:06:37;11.00;99.90
25058;DHT22;13057;50.978;11.034;2022-12-24T03:09:13;11.00;99.90
25058;DHT22;13057;50.978;11.034;2022-12-24T03:11:49;11.00;99.90
25058;DHT22;13057;50.978;11.034;2022-12-24T03:14:19;10.90;99.90
25058;DHT22;13057;50.978;11.034;2022-12-24T03:16:45;10.90;99.90
25058;DHT22;13057;50.978;11.034;2022-12-24T03:19:11;10.80;99.90
25058;DHT22;13057;50.978;11.034;2022-12-24T03:21:39;10.90;99.90
25058;DHT22;13057;50.978;11.034;2022-12-24T03:24:08;10.90;99.90
25058;DHT22;13057;50.978;11.034;2022-12-24T03:26:35;10.90;99.90
25058;DHT22;13057;50.978;11.034;2022-12-24T03:29:05;10.90;99.90
25058;DHT22;13057;50.978;11.034;2022-12-24T03:31:42;11.00;99.90
25058;DHT22;13057;50.978;11.034;2022-12-24T03:34:08;10.90;99.90
25058;DHT22;13057;50.978;11.034;2022-12-24T03:36:34;10.90;99.90
25058;DHT22;13057;50.978;11.034;2022-12-24T03:39:00;10.90;99.90
25058;DHT22;13057;50.978;11.034;2022-12-24T03:41:26;10.80;99.90
25058;DHT22;13057;50.978;11.034;2022-12-24T03:43:52;10.80;99.90
25058;DHT22;13057;50.978;11.034;2022-12-24T03:46:17;10.80;99.90
25058;DHT22;13057;50.978;11.034;2022-12-24T03:48:44;10.80;99.90
25058;DHT22;13057;50.978;11.034;2022-12-24T03:51:17;10.80;99.90
25058;DHT22;13057;50.978;11.034;2022-12-24T03:53:44;10.70;99.90
25058;DHT22;13057;50.978;11.034;2022-12-24T03:56:09;10.80;99.90
25058;DHT22;13057;50.978;11.034;2022-12-24T03:58:36;10.90;99.90
25058;DHT22;13057;50.978;11.034;2022-12-24T04:01:02;10.90;99.90
25058;DHT22;13057;50.978;11.034;2022-12-24T04:03:28;10.90;99.90
25058;DHT22;13057;50.978;11.034;2022-12-24T04:06:02;10.80;99.90
25058;DHT22;13057;50.978;11.034;2022-12-24T04:08:29;10.80;99.90
25058;DHT22;13057;50.978;11.034;2022-12-24T04:10:55;10.80;99.90
25058;DHT22;13057;50.978;11.034;2022-12-24T04:13:20;10.70;99.90
25058;DHT22;13057;50.978;11.034;2022-12-24T04:15:57;10.60;99.90
25058;DHT22;13057;50.978;11.034;2022-12-24T04:18:22;10.60;99.90
25058;DHT22;13057;50.978;11.034;2022-12-24T04:20:48;10.50;99.90
25058;DHT22;13057;50.978;11.034;2022-12-24T04:23:14;10.50;99.90
25058;DHT22;13057;50.978;11.034;2022-12-24T04:25:40;10.50;99.90
25058;DHT22;13057;50.978;11.034;2022-12-24T04:28:06;10.40;99.90
25058;DHT22;13057;50.978;11.034;2022-12-24T04:30:32;10.40;99.90
25058;DHT22;13057;50.978;11.034;2022-12-24T04:32:58;10.40;99.90
25058;DHT22;13057;50.978;11.034;2022-12-24T04:35:23;10.50;99.90
25058;DHT22;13057;50.978;11.034;2022-12-24T04:37:49;10.50;99.90
25058;DHT22;13057;50.978;11.034;2022-12-24T04:40:15;10.50;99.90
25058;DHT22;13057;50.978;11.034;2022-12-24T04:42:41;10.50;99.90
25058;DHT22;13057;50.978;11.034;2022-12-24T04:45:07;10.50;99.90
25058;DHT22;13057;50.978;11.034;2022-12-24T04:47:33;10.50;99.90
25058;DHT22;13057;50.978;11.034;2022-12-24T04:49:59;10.50;99.90
25058;DHT22;13057;50.978;11.034;2022-12-24T04:52:26;10.60;99.90
25058;DHT22;13057;50.978;11.034;2022-12-24T04:54:52;10.60;99.90
25058;DHT22;13057;50.978;11.034;2022-12-24T04:57:18;10.60;99.90
25058;DHT22;13057;50.978;11.034;2022-12-24T04:59:44;10.70;99.90
25058;DHT22;13057;50.978;11.034;2022-12-24T05:02:10;10.70;99.90
25058;DHT22;13057;50.978;11.034;2022-12-24T05:04:35;10.60;99.90
25058;DHT22;13057;50.978;11.034;2022-12-24T05:07:01;10.60;99.90
25058;DHT22;13057;50.978;11.034;2022-12-24T05:09:27;10.60;99.90
25058;DHT22;13057;50.978;11.034;2022-12-24T05:11:53;10.60;99.90
25058;DHT22;13057;50.978;11.034;2022-12-24T05:14:19;10.60;99.90
25058;DHT22;13057;50.978;11.034;2022-12-24T05:16:45;10.70;99.90
25058;DHT22;13057;50.978;11.034;2022-12-24T05:19:11;10.70;99.90
25058;DHT22;13057;50.978;11.034;2022-12-24T05:21:36;10.60;99.90
25058;DHT22;13057;50.978;11.034;2022-12-24T05:24:02;10.70;99.90
25058;DHT22;13057;50.978;11.034;2022-12-24T05:26:45;10.70;99.90
25058;DHT22;13057;50.978;11.034;2022-12-24T05:29:13;10.70;99.90
25058;DHT22;13057;50.978;11.034;2022-12-24T05:31:40;10.70;99.90
25058;DHT22;13057;50.978;11.034;2022-12-24T05:34:07;10.60;99.90
25058;DHT22;13057;50.978;11.034;2022-12-24T05:36:33;10.50;99.90
25058;DHT22;13057;50.978;11.034;2022-12-24T05:39:00;10.50;99.90
25058;DHT22;13057;50.978;11.034;2022-12-24T05:41:26;10.40;99.90
25058;DHT22;13057;50.978;11.034;2022-12-24T05:43:52;10.40;99.90
25058;DHT22;13057;50.978;11.034;2022-12-24T05:46:20;10.30;99.90
25058;DHT22;13057;50.978;11.034;2022-12-24T05:48:46;10.20;99.90
25058;DHT22;13057;50.978;11.034;2022-12-24T05:51:15;10.10;99.90
25058;DHT22;13057;50.978;11.034;2022-12-24T05:53:45;10.10;99.90
25058;DHT22;13057;50.978;11.034;2022-12-24T05:56:15;10.00;99.90
25058;DHT22;13057;50.978;11.034;2022-12-24T05:58:42;9.90;99.90
25058;DHT22;13057;50.978;11.034;2022-12-24T06:01:09;9.90;99.90
25058;DHT22;13057;50.978;11.034;2022-12-24T06:03:35;9.90;99.90
25058;DHT22;13057;50.978;11.034;2022-12-24T06:06:05;9.80;99.90
25058;DHT22;13057;50.978;11.034;2022-12-24T06:08:32;9.80;99.90
25058;DHT22;13057;50.978;11.034;2022-12-24T06:11:01;9.70;99.90
25058;DHT22;13057;50.978;11.034;2022-12-24T06:13:27;9.70;99.90
25058;DHT22;13057;50.978;11.034;2022-12-24T06:15:55;9.60;99.90
25058;DHT22;13057;50.978;11.034;2022-12-24T06:18:21;9.60;99.90
25058;DHT22;13057;50.978;11.034;2022-12-24T06:20:52;9.60;99.90
25058;DHT22;13057;50.978;11.034;2022-12-24T06:23:19;9.60;99.90
25058;DHT22;13057;50.978;11.034;2022-12-24T06:25:45;9.70;99.90
25058;DHT22;13057;50.978;11.034;2022-12-24T06:28:12;9.60;99.90
25058;DHT22;13057;50.978;11.034;2022-12-24T06:30:38;9.60;99.90
25058;DHT22;13057;50.978;11.034;2022-12-24T06:33:03;9.60;99.90
25058;DHT22;13057;50.978;11.034;2022-12-24T06:35:31;9.60;99.90
25058;DHT22;13057;50.978;11.034;2022-12-24T06:37:58;9.50;99.90
25058;DHT22;13057;50.978;11.034;2022-12-24T06:40:25;9.50;99.90
25058;DHT22;13057;50.978;11.034;2022-12-24T06:42:51;9.40;99.90
25058;DHT22;13057;50.978;11.034;2022-12-24T06:45:17;9.40;99.90
25058;DHT22;13057;50.978;11.034;2022-12-24T06:47:43;9.40;99.90
25058;DHT22;13057;50.978;11.034;2022-12-24T06:50:09;9.30;99.90
25058;DHT22;13057;50.978;11.034;2022-12-24T06:52:35;9.40;99.90
25058;DHT22;13057;50.978;11.034;2022-12-24T06:55:01;9.40;99.90
25058;DHT22;13057;50.978;11.034;2022-12-24T06:57:27;9.40;99.90
25058;DHT22;13057;50.978;11.034;2022-12-24T06:59:53;9.30;99.90
25058;DHT22;13057;50.978;11.034;2022-12-24T07:02:19;9.30;99.90
25058;DHT22;13057;50.978;11.034;2022-12-24T07:04:45;9.40;99.90
25058;DHT22;13057;50.978;11.034;2022-12-24T07:07:11;9.40;99.90
25058;DHT22;13057;50.978;11.034;2022-12-24T07:09:37;9.40;99.90
25058;DHT22;13057;50.978;11.034;2022-12-24T07:12:03;9.40;99.90
25058;DHT22;13057;50.978;11.034;2022-12-24T07:14:29;9.40;99.90
25058;DHT22;13057;50.978;11.034;2022-12-24T07:16:55;9.40;99.90
25058;DHT22;13057;50.978;11.034;2022-12-24T07:19:22;9.40;99.90
25058;DHT22;13057;50.978;11.034;2022-12-24T07:21:47;9.50;99.90
25058;DHT22;13057;50.978;11.034;2022-12-24T07:24:15;9.50;99.90
25058;DHT22;13057;50.978;11.034;2022-12-24T07:26:41;9.50;99.90
25058;DHT22;13057;50.978;11.034;2022-12-24T07:29:07;9.50;99.90
25058;DHT22;13057;50.978;11.034;2022-12-24T07:31:33;9.50;99.90
25058;DHT22;13057;50.978;11.034;2022-12-24T07:33:59;9.50;99.90
25058;DHT22;13057;50.978;11.034;2022-12-24T07:36:25;9.60;99.90
25058;DHT22;13057;50.978;11.034;2022-12-24T07:38:52;9.60;99.90
25058;DHT22;13057;50.978;11.034;2022-12-24T07:41:18;9.60;99.90
25058;DHT22;13057;50.978;11.034;2022-12-24T07:43:45;9.60;99.90
25058;DHT22;13057;50.978;11.034;2022-12-24T07:46:11;9.60;99.90
25058;DHT22;13057;50.978;11.034;2022-12-24T07:48:37;9.60;99.90
25058;DHT22;13057;50.978;11.034;2022-12-24T07:51:03;9.60;99.90
25058;DHT22;13057;50.978;11.034;2022-12-24T07:53:29;9.60;99.90
25058;DHT22;13057;50.978;11.034;2022-12-24T07:55:55;9.70;99.90
25058;DHT22;13057;50.978;11.034;2022-12-24T07:58:21;9.70;99.90
25058;DHT22;13057;50.978;11.034;2022-12-24T08:00:47;9.80;99.90
25058;DHT22;13057;50.978;11.034;2022-12-24T08:03:17;9.70;99.90
25058;DHT22;13057;50.978;11.034;2022-12-24T08:05:43;9.80;99.90
25058;DHT22;13057;50.978;11.034;2022-12-24T08:08:09;9.80;99.90
25058;DHT22;13057;50.978;11.034;2022-12-24T08:10:38;9.80;99.90
25058;DHT22;13057;50.978;11.034;2022-12-24T08:13:04;9.70;99.90
25058;DHT22;13057;50.978;11.034;2022-12-24T08:15:30;9.70;99.90
25058;DHT22;13057;50.978;11.034;2022-12-24T08:17:56;9.70;99.90
25058;DHT22;13057;50.978;11.034;2022-12-24T08:20:22;9.70;99.90
25058;DHT22;13057;50.978;11.034;2022-12-24T08:22:48;9.70;99.90
25058;DHT22;13057;50.978;11.034;2022-12-24T08:25:13;9.70;99.90
25058;DHT22;13057;50.978;11.034;2022-12-24T08:27:39;9.60;99.90
25058;DHT22;13057;50.978;11.034;2022-12-24T08:30:06;9.60;99.90
25058;DHT22;13057;50.978;11.034;2022-12-24T08:32:32;9.60;99.90
25058;DHT22;13057;50.978;11.034;2022-12-24T08:34:58;9.60;99.90
25058;DHT22;13057;50.978;11.034;2022-12-24T08:37:24;9.60;99.90
25058;DHT22;13057;50.978;11.034;2022-12-24T08:39:50;9.60;99.90
25058;DHT22;13057;50.978;11.034;2022-12-24T08:42:16;9.70;99.90
25058;DHT22;13057;50.978;11.034;2022-12-24T08:44:42;9.70;99.90
25058;DHT22;13057;50.978;11.034;2022-12-24T08:47:07;9.80;99.90
25058;DHT22;13057;50.978;11.034;2022-12-24T08:49:34;9.80;99.90
25058;DHT22;13057;50.978;11.034;2022-12-24T08:51:59;9.80;99.90
25058;DHT22;13057;50.978;11.034;2022-12-24T08:54:25;9.90;99.90
25058;DHT22;13057;50.978;11.034;2022-12-24T08:56:51;9.90;99.90
25058;DHT22;13057;50.978;11.034;2022-12-24T08:59:17;9.90;99.90
25058;DHT22;13057;50.978;11.034;2022-12-24T09:01:43;10.00;99.90
25058;DHT22;13057;50.978;11.034;2022-12-24T09:04:09;10.00;99.90
25058;DHT22;13057;50.978;11.034;2022-12-24T09:06:35;10.00;99.90
25058;DHT22;13057;50.978;11.034;2022-12-24T09:09:02;10.00;99.90
25058;DHT22;13057;50.978;11.034;2022-12-24T09:11:29;10.10;99.90
25058;DHT22;13057;50.978;11.034;2022-12-24T09:13:55;10.10;99.90
25058;DHT22;13057;50.978;11.034;2022-12-24T09:16:21;10.10;99.90
25058;DHT22;13057;50.978;11.034;2022-12-24T09:18:47;10.10;99.90
25058;DHT22;13057;50.978;11.034;2022-12-24T09:21:14;10.10;99.90
25058;DHT22;13057;50.978;11.034;2022-12-24T09:23:42;10.10;99.90
25058;DHT22;13057;50.978;11.034;2022-12-24T09:26:14;10.20;99.90
25058;DHT22;13057;50.978;11.034;2022-12-24T09:28:40;10.10;99.90
25058;DHT22;13057;50.978;11.034;2022-12-24T09:31:06;10.10;99.90
25058;DHT22;13057;50.978;11.034;2022-12-24T09:33:35;10.10;99.90
25058;DHT22;13057;50.978;11.034;2022-12-24T09:36:03;10.20;99.90
25058;DHT22;13057;50.978;11.034;2022-12-24T09:38:29;10.20;99.90
25058;DHT22;13057;50.978;11.034;2022-12-24T09:40:55;10.20;99.90
25058;DHT22;13057;50.978;11.034;2022-12-24T09:43:26;10.30;99.90
25058;DHT22;13057;50.978;11.034;2022-12-24T09:46:12;10.30;99.90
25058;DHT22;13057;50.978;11.034;2022-12-24T09:48:42;10.30;99.90
25058;DHT22;13057;50.978;11.034;2022-12-24T09:51:17;10.30;99.90
25058;DHT22;13057;50.978;11.034;2022-12-24T09:53:52;10.30;99.90
25058;DHT22;13057;50.978;11.034;2022-12-24T09:56:23;10.30;99.90
25058;DHT22;13057;50.978;11.034;2022-12-24T09:58:59;10.30;99.90
25058;DHT22;13057;50.978;11.034;2022-12-24T10:01:28;10.30;99.90
25058;DHT22;13057;50.978;11.034;2022-12-24T10:03:54;10.30;99.90
25058;DHT22;13057;50.978;11.034;2022-12-24T10:06:32;10.30;99.90
25058;DHT22;13057;50.978;11.034;2022-12-24T10:09:21;10.40;99.90
25058;DHT22;13057;50.978;11.034;2022-12-24T10:11:58;10.40;99.90
25058;DHT22;13057;50.978;11.034;2022-12-24T10:17:35;10.40;99.90
25058;DHT22;13057;50.978;11.034;2022-12-24T10:20:35;10.50;99.90
25058;DHT22;13057;50.978;11.034;2022-12-24T10:23:14;10.50;99.90
25058;DHT22;13057;50.978;11.034;2022-12-24T10:25:52;10.50;99.90
25058;DHT22;13057;50.978;11.034;2022-12-24T10:31:07;10.50;99.90
25058;DHT22;13057;50.978;11.034;2022-12-24T10:33:42;10.60;99.90
25058;DHT22;13057;50.978;11.034;2022-12-24T10:36:16;10.60;99.90
25058;DHT22;13057;50.978;11.034;2022-12-24T10:38:43;10.70;99.90
25058;DHT22;13057;50.978;11.034;2022-12-24T10:41:10;10.70;99.90
25058;DHT22;13057;50.978;11.034;2022-12-24T10:43:37;10.80;99.90
25058;DHT22;13057;50.978;11.034;2022-12-24T10:46:16;10.80;99.90
25058;DHT22;13057;50.978;11.034;2022-12-24T10:48:49;10.80;99.90
25058;DHT22;13057;50.978;11.034;2022-12-24T10:51:30;10.80;99.90
25058;DHT22;13057;50.978;11.034;2022-12-24T10:54:04;10.90;99.90
25058;DHT22;13057;50.978;11.034;2022-12-24T10:56:31;10.90;99.90
25058;DHT22;13057;50.978;11.034;2022-12-24T10:58:57;10.90;99.90
25058;DHT22;13057;50.978;11.034;2022-12-24T11:01:43;10.90;99.90
25058;DHT22;13057;50.978;11.034;2022-12-24T11:04:16;10.90;99.90
25058;DHT22;13057;50.978;11.034;2022-12-24T11:06:59;10.90;99.90
25058;DHT22;13057;50.978;11.034;2022-12-24T11:09:29;10.90;99.90
25058;DHT22;13057;50.978;11.034;2022-12-24T11:11:56;10.90;99.90
25058;DHT22;13057;50.978;11.034;2022-12-24T11:14:23;10.90;99.90
25058;DHT22;13057;50.978;11.034;2022-12-24T11:16:52;10.90;99.90
25058;DHT22;13057;50.978;11.034;2022-12-24T11:19:31;10.90;99.90
25058;DHT22;13057;50.978;11.034;2022-12-24T11:22:01;11.00;99.90
25058;DHT22;13057;50.978;11.034;2022-12-24T11:24:31;11.10;99.90
25058;DHT22;13057;50.978;11.034;2022-12-24T11:27:39;11.10;99.90
25058;DHT22;13057;50.978;11.034;2022-12-24T11:30:20;11.10;99.90
25058;DHT22;13057;50.978;11.034;2022-12-24T11:32:50;11.20;99.90
25058;DHT22;13057;50.978;11.034;2022-12-24T11:35:20;11.20;99.90
25058;DHT22;13057;50.978;11.034;2022-12-24T11:37:47;11.20;99.90
25058;DHT22;13057;50.978;11.034;2022-12-24T11:40:20;11.20;99.90
25058;DHT22;13057;50.978;11.034;2022-12-24T11:42:46;11.20;99.90
25058;DHT22;13057;50.978;11.034;2022-12-24T11:45:21;11.30;99.90
25058;DHT22;13057;50.978;11.034;2022-12-24T11:47:48;11.30;99.90
25058;DHT22;13057;50.978;11.034;2022-12-24T11:50:28;11.30;99.90
25058;DHT22;13057;50.978;11.034;2022-12-24T11:53:10;11.30;99.90
25058;DHT22;13057;50.978;11.034;2022-12-24T11:55:46;11.40;99.90
25058;DHT22;13057;50.978;11.034;2022-12-24T11:58:29;11.40;99.90
25058;DHT22;13057;50.978;11.034;2022-12-24T12:01:20;11.40;99.90
25058;DHT22;13057;50.978;11.034;2022-12-24T12:03:50;11.40;99.90
25058;DHT22;13057;50.978;11.034;2022-12-24T12:06:39;11.40;99.90
25058;DHT22;13057;50.978;11.034;2022-12-24T12:09:16;11.40;99.90
25058;DHT22;13057;50.978;11.034;2022-12-24T12:11:47;11.40;99.90
25058;DHT22;13057;50.978;11.034;2022-12-24T12:14:24;11.40;99.90
25058;DHT22;13057;50.978;11.034;2022-12-24T12:17:04;11.40;99.90
25058;DHT22;13057;50.978;11.034;2022-12-24T12:19:41;11.50;99.90
25058;DHT22;13057;50.978;11.034;2022-12-24T12:22:17;11.50;99.90
25058;DHT22;13057;50.978;11.034;2022-12-24T12:24:50;11.50;99.90
25058;DHT22;13057;50.978;11.034;2022-12-24T12:27:27;11.50;99.90
25058;DHT22;13057;50.978;11.034;2022-12-24T12:30:01;11.50;99.90
25058;DHT22;13057;50.978;11.034;2022-12-24T12:32:42;11.50;99.90
25058;DHT22;13057;50.978;11.034;2022-12-24T12:35:23;11.50;99.90
25058;DHT22;13057;50.978;11.034;2022-12-24T12:37:56;11.50;99.90
25058;DHT22;13057;50.978;11.034;2022-12-24T12:40:30;11.50;99.90
25058;DHT22;13057;50.978;11.034;2022-12-24T12:43:31;11.50;99.90
25058;DHT22;13057;50.978;11.034;2022-12-24T12:46:10;11.50;99.90
25058;DHT22;13057;50.978;11.034;2022-12-24T12:48:53;11.50;99.90
25058;DHT22;13057;50.978;11.034;2022-12-24T12:51:24;11.50;99.90
25058;DHT22;13057;50.978;11.034;2022-12-24T12:56:44;11.50;99.90
25058;DHT22;13057;50.978;11.034;2022-12-24T12:59:33;11.50;99.90
25058;DHT22;13057;50.978;11.034;2022-12-24T13:02:16;11.50;99.90
25058;DHT22;13057;50.978;11.034;2022-12-24T13:05:00;11.60;99.90
25058;DHT22;13057;50.978;11.034;2022-12-24T13:07:48;11.60;99.90
25058;DHT22;13057;50.978;11.034;2022-12-24T13:10:39;11.50;99.90
25058;DHT22;13057;50.978;11.034;2022-12-24T13:13:27;11.50;99.90
25058;DHT22;13057;50.978;11.034;2022-12-24T13:16:14;11.50;99.90
25058;DHT22;13057;50.978;11.034;2022-12-24T13:21:43;11.50;99.90
25058;DHT22;13057;50.978;11.034;2022-12-24T13:24:19;11.50;99.90
25058;DHT22;13057;50.978;11.034;2022-12-24T13:26:58;11.50;99.90
25058;DHT22;13057;50.978;11.034;2022-12-24T13:29:33;11.50;99.90
25058;DHT22;13057;50.978;11.034;2022-12-24T13:32:35;11.50;99.90
25058;DHT22;13057;50.978;11.034;2022-12-24T13:35:25;11.50;99.90
25058;DHT22;13057;50.978;11.034;2022-12-24T13:37:50;11.40;99.90
25058;DHT22;13057;50.978;11.034;2022-12-24T13:40:22;11.40;99.90
25058;DHT22;13057;50.978;11.034;2022-12-24T13:43:08;11.40;99.90
25058;DHT22;13057;50.978;11.034;2022-12-24T13:45:43;11.40;99.90
25058;DHT22;13057;50.978;11.034;2022-12-24T13:48:32;11.40;99.90
25058;DHT22;13057;50.978;11.034;2022-12-24T13:51:00;11.40;99.90
25058;DHT22;13057;50.978;11.034;2022-12-24T13:53:44;11.40;99.90
25058;DHT22;13057;50.978;11.034;2022-12-24T13:56:24;11.40;99.90
25058;DHT22;13057;50.978;11.034;2022-12-24T13:59:08;11.40;99.90
25058;DHT22;13057;50.978;11.034;2022-12-24T14:01:38;11.40;99.90
25058;DHT22;13057;50.978;11.034;2022-12-24T14:04:07;11.30;99.90
25058;DHT22;13057;50.978;11.034;2022-12-24T14:06:38;11.30;99.90
25058;DHT22;13057;50.978;11.034;2022-12-24T14:09:15;11.30;99.90
25058;DHT22;13057;50.978;11.034;2022-12-24T14:14:42;11.40;99.90
25058;DHT22;13057;50.978;11.034;2022-12-24T14:17:22;11.30;99.90
25058;DHT22;13057;50.978;11.034;2022-12-24T14:19:53;11.20;99.90
25058;DHT22;13057;50.978;11.034;2022-12-24T14:22:42;11.20;99.90
25058;DHT22;13057;50.978;11.034;2022-12-24T14:25:16;11.10;99.90
25058;DHT22;13057;50.978;11.034;2022-12-24T14:27:45;11.10;99.90
25058;DHT22;13057;50.978;11.034;2022-12-24T14:30:20;11.10;99.90
25058;DHT22;13057;50.978;11.034;2022-12-24T14:32:47;11.10;99.90
25058;DHT22;13057;50.978;11.034;2022-12-24T14:35:17;11.10;99.90
25058;DHT22;13057;50.978;11.034;2022-12-24T14:37:55;11.10;99.90
25058;DHT22;13057;50.978;11.034;2022-12-24T14:40:28;11.00;99.90
25058;DHT22;13057;50.978;11.034;2022-12-24T14:43:13;11.00;99.90
25058;DHT22;13057;50.978;11.034;2022-12-24T14:45:53;11.00;99.90
25058;DHT22;13057;50.978;11.034;2022-12-24T14:48:31;11.00;99.90
25058;DHT22;13057;50.978;11.034;2022-12-24T14:54:06;10.90;99.90
25058;DHT22;13057;50.978;11.034;2022-12-24T14:56:35;10.80;99.90
25058;DHT22;13057;50.978;11.034;2022-12-24T14:59:16;10.80;99.90
25058;DHT22;13057;50.978;11.034;2022-12-24T15:01:43;10.80;99.90
25058;DHT22;13057;50.978;11.034;2022-12-24T15:04:16;10.70;99.90
25058;DHT22;13057;50.978;11.034;2022-12-24T15:06:46;10.70;99.90
25058;DHT22;13057;50.978;11.034;2022-12-24T15:09:19;10.70;99.90
25058;DHT22;13057;50.978;11.034;2022-12-24T15:11:48;10.70;99.90
25058;DHT22;13057;50.978;11.034;2022-12-24T15:14:16;10.70;99.90
25058;DHT22;13057;50.978;11.034;2022-12-24T15:16:54;10.70;99.90
25058;DHT22;13057;50.978;11.034;2022-12-24T15:19:25;10.60;99.90
25058;DHT22;13057;50.978;11.034;2022-12-24T15:21:54;10.70;99.90
25058;DHT22;13057;50.978;11.034;2022-12-24T15:24:27;10.70;99.90
25058;DHT22;13057;50.978;11.034;2022-12-24T15:26:53;10.70;99.90
25058;DHT22;13057;50.978;11.034;2022-12-24T15:29:26;10.70;99.90
25058;DHT22;13057;50.978;11.034;2022-12-24T15:31:54;10.70;99.90
25058;DHT22;13057;50.978;11.034;2022-12-24T15:34:28;10.70;99.90
25058;DHT22;13057;50.978;11.034;2022-12-24T15:37:03;10.70;99.90
25058;DHT22;13057;50.978;11.034;2022-12-24T15:39:29;10.70;99.90
25058;DHT22;13057;50.978;11.034;2022-12-24T15:41:55;10.60;99.90
25058;DHT22;13057;50.978;11.034;2022-12-24T15:44:35;10.50;99.90
25058;DHT22;13057;50.978;11.034;2022-12-24T15:47:05;10.50;99.90
25058;DHT22;13057;50.978;11.034;2022-12-24T15:49:33;10.50;99.90
25058;DHT22;13057;50.978;11.034;2022-12-24T15:52:06;10.50;99.90
25058;DHT22;13057;50.978;11.034;2022-12-24T15:54:33;10.50;99.90
25058;DHT22;13057;50.978;11.034;2022-12-24T15:56:58;10.40;99.90
25058;DHT22;13057;50.978;11.034;2022-12-24T15:59:35;10.40;99.90
25058;DHT22;13057;50.978;11.034;2022-12-24T16:02:29;10.40;99.90